createdAt,value
2022-11-20T00:00:25.724Z,49.22
2022-11-20T00:01:29.840Z,49.23
2022-11-20T00:02:33.933Z,49.24
2022-11-20T00:03:38.014Z,49.24
2022-11-20T00:04:42.087Z,49.26
2022-11-20T00:05:46.175Z,49.28
2022-11-20T00:06:50.276Z,49.27
2022-11-20T00:07:54.361Z,49.25
2022-11-20T00:08:58.424Z,49.25
2022-11-20T00:10:02.489Z,49.36
2022-11-20T00:11:08.481Z,49.34
2022-11-20T00:12:13.526Z,49.4
2022-11-20T00:13:17.598Z,49.32
2022-11-20T00:14:21.662Z,49.33
2022-11-20T00:15:25.713Z,49.34
2022-11-20T00:16:29.783Z,49.37
2022-11-20T00:17:33.841Z,49.27
2022-11-20T00:18:37.911Z,49.3
2022-11-20T00:19:41.958Z,49.34
2022-11-20T00:20:46.005Z,49.39
2022-11-20T00:21:50.059Z,49.41
2022-11-20T00:22:54.112Z,49.47
2022-11-20T00:23:58.209Z,49.46
2022-11-20T00:25:02.366Z,49.53
2022-11-20T00:26:06.461Z,49.43
2022-11-20T00:27:10.564Z,49.45
2022-11-20T00:28:14.637Z,49.48
2022-11-20T00:29:19.015Z,49.57
2022-11-20T00:30:23.221Z,49.59
2022-11-20T00:31:27.294Z,49.56
2022-11-20T00:32:31.378Z,49.67
2022-11-20T00:33:35.464Z,49.6
2022-11-20T00:34:39.566Z,49.6
2022-11-20T00:35:43.655Z,49.64
2022-11-20T00:36:47.763Z,49.67
2022-11-20T00:37:51.846Z,49.61
2022-11-20T00:38:55.927Z,49.73
2022-11-20T00:40:00.010Z,49.77
2022-11-20T00:41:04.081Z,49.73
2022-11-20T00:42:08.161Z,49.8
2022-11-20T00:43:12.252Z,49.81
2022-11-20T00:44:16.395Z,49.82
2022-11-20T00:45:20.509Z,49.83
2022-11-20T00:46:24.610Z,49.87
2022-11-20T00:47:28.701Z,49.89
2022-11-20T00:48:32.788Z,49.88
2022-11-20T00:49:36.860Z,49.9
2022-11-20T00:50:40.931Z,49.89
2022-11-20T00:51:45.013Z,49.84
2022-11-20T00:52:49.086Z,49.83
2022-11-20T00:53:53.167Z,49.91
2022-11-20T00:54:57.233Z,49.91
2022-11-20T00:56:01.314Z,49.97
2022-11-20T00:57:05.394Z,49.97
2022-11-20T00:58:15.509Z,49.98
2022-11-20T00:59:20.135Z,49.98
2022-11-20T01:00:24.356Z,49.99
2022-11-20T01:01:28.860Z,50.04
2022-11-20T01:02:32.959Z,50.04
2022-11-20T01:03:37.033Z,50.05
2022-11-20T01:04:41.118Z,50
2022-11-20T01:05:45.200Z,50.04
2022-11-20T01:06:49.280Z,50.05
2022-11-20T01:07:53.631Z,50.04
2022-11-20T01:08:57.715Z,49.98
2022-11-20T01:10:01.784Z,50.02
2022-11-20T01:11:05.853Z,50.02
2022-11-20T01:12:09.922Z,50
2022-11-20T01:13:14.005Z,50
2022-11-20T01:14:18.151Z,50.01
2022-11-20T01:15:22.238Z,50.04
2022-11-20T01:16:26.312Z,50.06
2022-11-20T01:17:30.387Z,50.04
2022-11-20T01:18:34.467Z,50.13
2022-11-20T01:19:38.538Z,50.17
2022-11-20T01:20:42.602Z,50.21
2022-11-20T01:21:46.671Z,50.11
2022-11-20T01:22:50.764Z,50.17
2022-11-20T01:23:54.842Z,50.24
2022-11-20T01:24:58.908Z,50.21
2022-11-20T01:26:02.976Z,50.22
2022-11-20T01:27:07.069Z,50.19
2022-11-20T01:28:11.171Z,50.18
2022-11-20T01:29:15.331Z,50.32
2022-11-20T01:30:19.405Z,50.27
2022-11-20T01:31:23.504Z,50.33
2022-11-20T01:32:27.594Z,50.34
2022-11-20T01:33:31.701Z,50.36
2022-11-20T01:34:35.801Z,50.37
2022-11-20T01:35:39.880Z,50.42
2022-11-20T01:36:43.971Z,50.36
2022-11-20T01:37:48.062Z,50.33
2022-11-20T01:38:52.144Z,50.44
2022-11-20T01:39:56.235Z,50.49
2022-11-20T01:41:00.306Z,50.44
2022-11-20T01:42:11.674Z,50.46
2022-11-20T01:43:15.748Z,50.47
2022-11-20T01:44:19.847Z,50.42
2022-11-20T01:45:23.972Z,50.42
2022-11-20T01:46:28.044Z,50.51
2022-11-20T01:47:32.160Z,50.5
2022-11-20T01:48:36.241Z,50.52
2022-11-20T01:49:40.340Z,50.53
2022-11-20T01:50:44.429Z,50.54
2022-11-20T01:51:48.516Z,50.57
2022-11-20T01:52:52.633Z,50.55
2022-11-20T01:53:56.993Z,50.61
2022-11-20T01:55:01.095Z,50.57
2022-11-20T01:56:05.231Z,50.63
2022-11-20T01:57:09.358Z,50.71
2022-11-20T01:58:13.437Z,50.79
2022-11-20T01:59:17.885Z,50.68
2022-11-20T02:00:22.183Z,50.61
2022-11-20T02:01:26.937Z,50.63
2022-11-20T02:02:31.040Z,50.7
2022-11-20T02:03:35.103Z,50.75
2022-11-20T02:04:39.186Z,50.71
2022-11-20T02:05:43.282Z,50.7
2022-11-20T02:06:47.417Z,50.71
2022-11-20T02:07:51.502Z,50.79
2022-11-20T02:08:55.578Z,50.76
2022-11-20T02:10:00.941Z,50.74
2022-11-20T02:11:05.164Z,50.75
2022-11-20T02:12:09.281Z,50.74
2022-11-20T02:13:13.363Z,50.77
2022-11-20T02:14:17.449Z,50.79
2022-11-20T02:15:24.089Z,50.8
2022-11-20T02:16:29.175Z,50.79
2022-11-20T02:17:33.240Z,50.8
2022-11-20T02:18:37.326Z,50.8
2022-11-20T02:19:41.417Z,50.81
2022-11-20T02:20:45.486Z,50.81
2022-11-20T02:21:49.577Z,50.81
2022-11-20T02:22:53.675Z,50.81
2022-11-20T02:23:57.775Z,50.81
2022-11-20T02:25:01.834Z,50.88
2022-11-20T02:26:05.905Z,51.23
2022-11-20T02:27:09.987Z,51.05
2022-11-20T02:28:14.054Z,51.07
2022-11-20T02:29:18.611Z,50.98
2022-11-20T02:30:22.866Z,51
2022-11-20T02:31:26.960Z,51.03
2022-11-20T02:32:31.022Z,51.1
2022-11-20T02:33:35.106Z,51.17
2022-11-20T02:34:39.180Z,51.23
2022-11-20T02:35:43.234Z,51.2
2022-11-20T02:36:47.312Z,51.21
2022-11-20T02:37:51.408Z,51.14
2022-11-20T02:38:55.472Z,51.15
2022-11-20T02:39:59.533Z,51.13
2022-11-20T02:41:03.589Z,51.19
2022-11-20T02:42:07.642Z,51.18
2022-11-20T02:43:11.780Z,51.1
2022-11-20T02:44:15.843Z,51.13
2022-11-20T02:45:19.892Z,51.13
2022-11-20T02:46:23.948Z,51.14
2022-11-20T02:47:28.003Z,51.15
2022-11-20T02:48:35.801Z,51.15
2022-11-20T02:49:39.874Z,51.21
2022-11-20T02:50:43.933Z,51.16
2022-11-20T02:51:48.326Z,51.18
2022-11-20T02:52:52.416Z,51.2
2022-11-20T02:53:56.776Z,51.07
2022-11-20T02:55:00.862Z,51.07
2022-11-20T02:56:04.941Z,51.04
2022-11-20T02:57:09.017Z,51.08
2022-11-20T02:58:13.086Z,51.09
2022-11-20T02:59:17.181Z,51.13
2022-11-20T03:00:21.249Z,51.07
2022-11-20T03:01:25.585Z,51.12
2022-11-20T03:02:29.694Z,51.13
2022-11-20T03:03:33.773Z,51.12
2022-11-20T03:04:37.857Z,51.18
2022-11-20T03:05:41.941Z,51.16
2022-11-20T03:06:46.013Z,51.18
2022-11-20T03:07:50.078Z,51.17
2022-11-20T03:08:54.132Z,51.15
2022-11-20T03:09:58.210Z,51.1
2022-11-20T03:11:02.254Z,50.99
2022-11-20T03:12:06.311Z,51.04
2022-11-20T03:13:10.911Z,51.13
2022-11-20T03:14:14.990Z,50.95
2022-11-20T03:15:19.097Z,50.75
2022-11-20T03:16:23.182Z,50.64
2022-11-20T03:17:27.284Z,50.59
2022-11-20T03:18:31.332Z,50.46
2022-11-20T03:19:35.396Z,50.51
2022-11-20T03:20:39.496Z,50.35
2022-11-20T03:21:43.567Z,50.28
2022-11-20T03:22:47.642Z,50.28
2022-11-20T03:23:51.709Z,50.25
2022-11-20T03:24:55.832Z,50.21
2022-11-20T03:25:59.922Z,50.19
2022-11-20T03:27:03.992Z,50.12
2022-11-20T03:28:08.081Z,50.07
2022-11-20T03:29:12.144Z,50.08
2022-11-20T03:30:16.243Z,50.05
2022-11-20T03:31:20.328Z,50.05
2022-11-20T03:32:24.451Z,49.99
2022-11-20T03:33:28.550Z,49.95
2022-11-20T03:34:32.629Z,49.89
2022-11-20T03:35:36.690Z,49.88
2022-11-20T03:36:40.786Z,49.87
2022-11-20T03:37:44.868Z,49.8
2022-11-20T03:38:48.958Z,49.78
2022-11-20T03:39:53.028Z,49.72
2022-11-20T03:40:57.094Z,49.77
2022-11-20T03:42:01.186Z,49.74
2022-11-20T03:43:05.268Z,49.7
2022-11-20T03:44:09.350Z,49.7
2022-11-20T03:45:13.396Z,49.7
2022-11-20T03:46:17.464Z,49.64
2022-11-20T03:47:21.554Z,49.59
2022-11-20T03:48:25.634Z,49.59
2022-11-20T03:49:29.696Z,49.51
2022-11-20T03:50:33.761Z,49.48
2022-11-20T03:51:37.850Z,49.49
2022-11-20T03:52:41.932Z,49.45
2022-11-20T03:53:45.996Z,49.43
2022-11-20T03:54:50.070Z,49.39
2022-11-20T03:55:54.137Z,49.34
2022-11-20T03:56:58.240Z,49.31
2022-11-20T03:58:02.317Z,49.36
2022-11-20T03:59:06.397Z,49.36
2022-11-20T04:00:10.489Z,49.4
2022-11-20T04:01:14.918Z,49.41
2022-11-20T04:02:19.254Z,49.4
2022-11-20T04:03:23.348Z,49.45
2022-11-20T04:04:27.770Z,49.5
2022-11-20T04:05:31.839Z,49.5
2022-11-20T04:06:35.920Z,49.52
2022-11-20T04:07:40.233Z,49.53
2022-11-20T04:08:44.358Z,49.52
2022-11-20T04:09:48.437Z,49.5
2022-11-20T04:10:52.525Z,49.44
2022-11-20T04:11:56.583Z,49.45
2022-11-20T04:13:00.639Z,49.46
2022-11-20T04:14:04.726Z,49.4
2022-11-20T04:15:08.784Z,49.37
2022-11-20T04:16:12.866Z,49.33
2022-11-20T04:17:16.972Z,49.32
2022-11-20T04:18:21.062Z,49.29
2022-11-20T04:19:25.565Z,49.25
2022-11-20T04:20:29.638Z,49.19
2022-11-20T04:21:33.734Z,49.19
2022-11-20T04:22:37.796Z,49.16
2022-11-20T04:23:41.885Z,49.16
2022-11-20T04:24:45.972Z,49.15
2022-11-20T04:25:50.080Z,49.13
2022-11-20T04:26:54.183Z,49.12
2022-11-20T04:27:58.286Z,49.06
2022-11-20T04:29:02.353Z,49.04
2022-11-20T04:30:06.430Z,49.04
2022-11-20T04:31:10.515Z,48.99
2022-11-20T04:32:14.592Z,48.88
2022-11-20T04:33:18.765Z,48.86
2022-11-20T04:34:22.837Z,48.79
2022-11-20T04:35:26.935Z,48.82
2022-11-20T04:36:31.003Z,48.85
2022-11-20T04:37:35.069Z,48.77
2022-11-20T04:38:39.151Z,48.78
2022-11-20T04:39:43.222Z,48.76
2022-11-20T04:40:47.336Z,48.73
2022-11-20T04:41:51.404Z,48.64
2022-11-20T04:42:55.461Z,48.59
2022-11-20T04:43:59.533Z,48.59
2022-11-20T04:45:03.606Z,48.54
2022-11-20T04:46:07.693Z,48.54
2022-11-20T04:47:11.769Z,48.48
2022-11-20T04:48:15.831Z,48.49
2022-11-20T04:49:20.646Z,48.4
2022-11-20T04:50:24.917Z,48.42
2022-11-20T04:51:29.095Z,48.45
2022-11-20T04:52:33.171Z,48.45
2022-11-20T04:53:37.266Z,48.36
2022-11-20T04:54:41.350Z,48.31
2022-11-20T04:55:45.406Z,48.36
2022-11-20T04:56:51.723Z,48.34
2022-11-20T04:57:55.812Z,48.37
2022-11-20T04:58:59.868Z,48.4
2022-11-20T05:00:04.251Z,48.48
2022-11-20T05:01:08.874Z,48.58
2022-11-20T05:02:12.985Z,48.6
2022-11-20T05:03:17.094Z,48.62
2022-11-20T05:04:21.192Z,48.71
2022-11-20T05:05:25.261Z,48.71
2022-11-20T05:06:29.325Z,48.72
2022-11-20T05:07:33.676Z,48.73
2022-11-20T05:08:37.806Z,48.78
2022-11-20T05:09:41.881Z,48.76
2022-11-20T05:10:45.956Z,48.73
2022-11-20T05:11:53.506Z,48.65
2022-11-20T05:12:57.764Z,48.64
2022-11-20T05:14:02.221Z,48.58
2022-11-20T05:15:06.646Z,48.56
2022-11-20T05:16:11.347Z,48.51
2022-11-20T05:17:15.636Z,48.45
2022-11-20T05:18:19.727Z,48.43
2022-11-20T05:19:24.466Z,48.4
2022-11-20T05:20:28.570Z,48.39
2022-11-20T05:21:32.677Z,48.32
2022-11-20T05:22:36.759Z,48.26
2022-11-20T05:23:40.880Z,48.27
2022-11-20T05:24:44.981Z,48.27
2022-11-20T05:25:49.059Z,48.26
2022-11-20T05:26:53.118Z,48.18
2022-11-20T05:27:57.169Z,48.11
2022-11-20T05:29:01.259Z,48.06
2022-11-20T05:30:05.314Z,48.12
2022-11-20T05:31:09.417Z,48.11
2022-11-20T05:32:13.499Z,48.09
2022-11-20T05:33:17.567Z,48.11
2022-11-20T05:34:21.645Z,48.08
2022-11-20T05:35:25.708Z,48.06
2022-11-20T05:36:29.799Z,48.07
2022-11-20T05:37:33.864Z,48.07
2022-11-20T05:38:37.948Z,48.03
2022-11-20T05:39:42.002Z,48.02
2022-11-20T05:40:46.101Z,48
2022-11-20T05:41:50.159Z,47.96
2022-11-20T05:42:54.244Z,47.98
2022-11-20T05:43:58.336Z,47.95
2022-11-20T05:45:02.414Z,47.93
2022-11-20T05:46:06.514Z,47.84
2022-11-20T05:47:10.569Z,47.86
2022-11-20T05:48:14.622Z,47.88
2022-11-20T05:49:18.886Z,47.9
2022-11-20T05:50:23.080Z,47.9
2022-11-20T05:51:27.171Z,47.78
2022-11-20T05:52:31.276Z,47.78
2022-11-20T05:53:35.392Z,47.74
2022-11-20T05:54:39.472Z,47.76
2022-11-20T05:55:43.605Z,47.73
2022-11-20T05:56:47.690Z,47.73
2022-11-20T05:57:51.746Z,47.81
2022-11-20T05:58:55.849Z,47.88
2022-11-20T05:59:59.914Z,47.84
2022-11-20T06:01:04.009Z,47.92
2022-11-20T06:02:08.081Z,47.93
2022-11-20T06:03:12.174Z,47.9
2022-11-20T06:04:16.259Z,47.95
2022-11-20T06:05:20.321Z,47.97
2022-11-20T06:06:24.398Z,47.99
2022-11-20T06:07:28.627Z,47.98
2022-11-20T06:08:32.712Z,47.96
2022-11-20T06:09:36.797Z,47.92
2022-11-20T06:10:40.885Z,47.85
2022-11-20T06:11:44.980Z,47.79
2022-11-20T06:12:49.085Z,47.85
2022-11-20T06:13:53.209Z,47.84
2022-11-20T06:14:57.313Z,47.82
2022-11-20T06:16:01.397Z,47.79
2022-11-20T06:17:05.540Z,47.78
2022-11-20T06:18:09.604Z,47.76
2022-11-20T06:19:13.704Z,47.66
2022-11-20T06:20:17.803Z,47.64
2022-11-20T06:21:21.871Z,47.63
2022-11-20T06:22:25.956Z,47.6
2022-11-20T06:23:30.038Z,47.63
2022-11-20T06:24:34.142Z,47.62
2022-11-20T06:25:38.239Z,47.65
2022-11-20T06:26:42.356Z,47.57
2022-11-20T06:27:46.434Z,47.6
2022-11-20T06:28:50.559Z,47.54
2022-11-20T06:29:54.646Z,47.55
2022-11-20T06:30:58.715Z,47.5
2022-11-20T06:32:02.801Z,47.49
2022-11-20T06:33:06.904Z,47.42
2022-11-20T06:34:10.984Z,47.49
2022-11-20T06:35:15.054Z,47.41
2022-11-20T06:36:19.237Z,47.42
2022-11-20T06:37:23.310Z,47.5
2022-11-20T06:38:27.409Z,47.39
2022-11-20T06:39:31.504Z,47.28
2022-11-20T06:40:35.556Z,47.33
2022-11-20T06:41:39.628Z,47.28
2022-11-20T06:42:43.692Z,47.28
2022-11-20T06:43:47.797Z,47.27
2022-11-20T06:44:51.867Z,47.33
2022-11-20T06:45:56.005Z,47.32
2022-11-20T06:47:00.094Z,47.29
2022-11-20T06:48:04.179Z,47.29
2022-11-20T06:49:08.290Z,47.4
2022-11-20T06:50:12.390Z,47.46
2022-11-20T06:51:16.478Z,47.48
2022-11-20T06:52:20.596Z,47.43
2022-11-20T06:53:24.670Z,47.54
2022-11-20T06:54:28.743Z,47.58
2022-11-20T06:55:32.797Z,47.55
2022-11-20T06:56:36.858Z,47.55
2022-11-20T06:57:40.931Z,47.54
2022-11-20T06:58:45.005Z,47.45
2022-11-20T06:59:49.107Z,47.5
2022-11-20T07:00:53.264Z,47.52
2022-11-20T07:01:57.343Z,47.43
2022-11-20T07:03:01.415Z,47.43
2022-11-20T07:04:05.515Z,47.38
2022-11-20T07:05:09.625Z,47.37
2022-11-20T07:06:13.715Z,47.46
2022-11-20T07:07:18.011Z,47.38
2022-11-20T07:08:22.222Z,47.42
2022-11-20T07:09:27.456Z,47.48
2022-11-20T07:10:31.872Z,47.55
2022-11-20T07:11:35.945Z,47.59
2022-11-20T07:12:40.015Z,47.62
2022-11-20T07:13:44.149Z,47.7
2022-11-20T07:14:48.263Z,47.71
2022-11-20T07:15:52.346Z,47.74
2022-11-20T07:16:56.428Z,47.76
2022-11-20T07:18:00.507Z,47.8
2022-11-20T07:19:04.598Z,47.84
2022-11-20T07:20:08.670Z,47.96
2022-11-20T07:21:12.763Z,48.07
2022-11-20T07:22:16.818Z,48.05
2022-11-20T07:23:20.906Z,48.1
2022-11-20T07:24:24.973Z,48.17
2022-11-20T07:25:29.023Z,48.2
2022-11-20T07:26:33.117Z,48.27
2022-11-20T07:27:37.215Z,48.31
2022-11-20T07:28:41.335Z,48.37
2022-11-20T07:29:45.427Z,48.37
2022-11-20T07:30:49.509Z,48.46
2022-11-20T07:31:53.589Z,48.44
2022-11-20T07:32:57.669Z,48.51
2022-11-20T07:34:01.764Z,48.58
2022-11-20T07:35:05.853Z,48.58
2022-11-20T07:36:09.938Z,48.61
2022-11-20T07:37:14.007Z,48.65
2022-11-20T07:38:18.075Z,48.75
2022-11-20T07:39:23.099Z,48.75
2022-11-20T07:40:27.394Z,48.8
2022-11-20T07:41:31.584Z,48.83
2022-11-20T07:42:35.654Z,48.98
2022-11-20T07:43:43.294Z,48.91
2022-11-20T07:44:47.378Z,49.03
2022-11-20T07:45:51.483Z,49.12
2022-11-20T07:46:55.614Z,49.09
2022-11-20T07:47:59.692Z,49.2
2022-11-20T07:49:03.766Z,49.28
2022-11-20T07:50:07.963Z,49.28
2022-11-20T07:51:12.054Z,49.31
2022-11-20T07:52:16.145Z,49.33
2022-11-20T07:53:20.211Z,49.38
2022-11-20T07:54:24.303Z,49.43
2022-11-20T07:55:28.367Z,49.49
2022-11-20T07:56:32.450Z,49.48
2022-11-20T07:57:36.528Z,49.53
2022-11-20T07:58:40.602Z,49.51
2022-11-20T07:59:44.672Z,49.44
2022-11-20T08:00:48.972Z,49.46
2022-11-20T08:01:53.065Z,49.42
2022-11-20T08:02:57.161Z,49.46
2022-11-20T08:04:01.255Z,49.45
2022-11-20T08:05:05.356Z,49.58
2022-11-20T08:06:09.444Z,49.56
2022-11-20T08:07:13.658Z,49.59
2022-11-20T08:08:17.801Z,49.73
2022-11-20T08:09:22.911Z,49.8
2022-11-20T08:10:27.265Z,49.78
2022-11-20T08:11:31.387Z,49.79
2022-11-20T08:12:35.463Z,49.85
2022-11-20T08:13:39.540Z,49.84
2022-11-20T08:14:43.609Z,50
2022-11-20T08:15:47.691Z,50
2022-11-20T08:16:51.787Z,49.95
2022-11-20T08:18:33.372Z,49.86
2022-11-20T08:19:37.585Z,49.89
2022-11-20T08:20:41.650Z,50.07
2022-11-20T08:21:45.744Z,50
2022-11-20T08:22:49.813Z,49.97
2022-11-20T08:23:53.902Z,50.02
2022-11-20T08:24:58.011Z,50.07
2022-11-20T08:26:02.095Z,50.01
2022-11-20T08:27:06.155Z,50.07
2022-11-20T08:28:23.368Z,50.07
2022-11-20T08:29:27.424Z,50.09
2022-11-20T08:30:31.528Z,50.16
2022-11-20T08:31:35.629Z,50.2
2022-11-20T08:32:39.699Z,50.21
2022-11-20T08:33:43.780Z,50.27
2022-11-20T08:34:47.847Z,50.25
2022-11-20T08:35:51.951Z,50.31
2022-11-20T08:36:56.026Z,50.35
2022-11-20T08:38:00.086Z,50.33
2022-11-20T08:39:04.156Z,50.56
2022-11-20T08:40:08.263Z,50.29
2022-11-20T08:41:12.349Z,50.25
2022-11-20T08:42:16.446Z,50.2
2022-11-20T08:43:20.567Z,49.87
2022-11-20T08:44:24.672Z,49.46
2022-11-20T08:45:36.477Z,49.34
2022-11-20T08:46:40.609Z,49.24
2022-11-20T08:47:44.686Z,48.73
2022-11-20T08:48:48.771Z,48.53
2022-11-20T08:49:52.879Z,48.3
2022-11-20T08:50:56.978Z,48.12
2022-11-20T08:52:01.072Z,47.88
2022-11-20T08:53:05.155Z,48.02
2022-11-20T08:54:09.236Z,47.82
2022-11-20T08:55:13.311Z,47.7
2022-11-20T08:56:17.361Z,47.78
2022-11-20T08:57:21.445Z,47.97
2022-11-20T08:58:25.501Z,47.67
2022-11-20T09:00:07.211Z,47.37
2022-11-20T09:01:11.636Z,47.44
2022-11-20T09:02:15.725Z,47.64
2022-11-20T09:03:19.801Z,47.28
2022-11-20T09:04:23.891Z,47.45
2022-11-20T09:05:27.992Z,47.42
2022-11-20T09:06:32.090Z,47.45
2022-11-20T09:07:36.428Z,47.04
2022-11-20T09:08:40.481Z,47.3
2022-11-20T09:09:46.318Z,47.27
2022-11-20T09:10:50.520Z,47.2
2022-11-20T09:11:54.615Z,46.99
2022-11-20T09:12:58.870Z,47
2022-11-20T09:14:02.956Z,47.03
2022-11-20T09:15:07.027Z,46.93
2022-11-20T09:16:11.092Z,46.99
2022-11-20T09:17:15.173Z,47.05
2022-11-20T09:18:19.289Z,47.09
2022-11-20T09:19:42.882Z,46.9
2022-11-20T09:20:47.332Z,47.07
2022-11-20T09:21:53.596Z,46.96
2022-11-20T09:22:59.731Z,47.06
2022-11-20T09:24:03.841Z,46.82
2022-11-20T09:25:07.914Z,47.05
2022-11-20T09:26:12.014Z,46.83
2022-11-20T09:27:16.092Z,46.83
2022-11-20T09:28:20.152Z,47.22
2022-11-20T09:29:25.386Z,46.84
2022-11-20T09:30:29.472Z,46.73
2022-11-20T09:31:33.612Z,46.92
2022-11-20T09:32:37.692Z,46.78
2022-11-20T09:33:41.783Z,46.78
2022-11-20T09:34:45.853Z,46.75
2022-11-20T09:35:49.926Z,47
2022-11-20T09:36:53.989Z,47.08
2022-11-20T09:37:58.054Z,47.04
2022-11-20T09:39:02.130Z,46.73
2022-11-20T09:40:06.239Z,46.86
2022-11-20T09:41:10.311Z,46.54
2022-11-20T09:42:14.381Z,46.67
2022-11-20T09:43:18.446Z,46.72
2022-11-20T09:44:22.535Z,46.73
2022-11-20T09:45:26.645Z,46.56
2022-11-20T09:46:30.724Z,46.71
2022-11-20T09:47:34.771Z,46.76
2022-11-20T09:48:38.854Z,46.43
2022-11-20T09:49:42.925Z,46.39
2022-11-20T09:50:47.011Z,46.51
2022-11-20T09:51:51.076Z,46.08
2022-11-20T09:52:55.138Z,46.43
2022-11-20T09:53:59.233Z,46.57
2022-11-20T09:55:03.303Z,46.58
2022-11-20T09:56:07.488Z,46.64
2022-11-20T09:57:11.560Z,46.51
2022-11-20T09:58:15.651Z,47.15
2022-11-20T09:59:20.331Z,46.91
2022-11-20T10:00:24.880Z,47.01
2022-11-20T10:01:29.278Z,47.17
2022-11-20T10:02:33.362Z,47.1
2022-11-20T10:03:37.436Z,47.17
2022-11-20T10:04:42.731Z,47.08
2022-11-20T10:05:46.828Z,47.38
2022-11-20T10:07:33.065Z,47.39
2022-11-20T10:08:37.384Z,47.35
2022-11-20T10:09:41.529Z,47.42
2022-11-20T10:10:53.917Z,47.81
2022-11-20T10:11:58.072Z,47.66
2022-11-20T10:13:02.137Z,47.84
2022-11-20T10:14:06.246Z,47.96
2022-11-20T10:15:10.300Z,47.85
2022-11-20T10:16:14.452Z,47.88
2022-11-20T10:17:18.570Z,47.92
2022-11-20T10:18:22.636Z,47.96
2022-11-20T10:19:26.849Z,48.05
2022-11-20T10:20:30.951Z,48.01
2022-11-20T10:21:35.019Z,48.2
2022-11-20T10:22:39.121Z,48.16
2022-11-20T10:23:43.304Z,48.2
